createdAt,value
2022-11-05T00:00:16.004Z,97103.50
2022-11-05T00:03:34.137Z,97119.59
2022-11-05T00:06:52.208Z,97124.84
2022-11-05T00:10:16.227Z,97119.78
2022-11-05T00:13:37.148Z,97126.88
2022-11-05T00:16:48.624Z,97126.25
2022-11-05T00:19:54.420Z,97123.72
2022-11-05T00:23:16.583Z,97141.97
2022-11-05T00:26:22.382Z,97143.19
2022-11-05T00:29:47.132Z,97148.97
2022-11-05T00:32:55.547Z,97147.38
2022-11-05T00:36:08.469Z,97155.50
2022-11-05T00:39:19.554Z,97161.63
2022-11-05T00:42:37.754Z,97163.34
2022-11-05T00:45:46.837Z,97166.56
2022-11-05T00:49:04.865Z,97164.81
2022-11-05T00:52:22.726Z,97153.44
2022-11-05T00:55:38.321Z,97141.75
2022-11-05T00:58:44.164Z,97148.91
2022-11-05T01:01:53.161Z,97146.91
2022-11-05T01:04:59.207Z,97143.59
2022-11-05T01:08:05.211Z,97143.22
2022-11-05T01:11:33.591Z,97154.41
2022-11-05T01:14:39.574Z,97169.50
2022-11-05T01:17:48.080Z,97170.75
2022-11-05T01:20:54.561Z,97172.81
2022-11-05T01:24:00.971Z,97161.84
2022-11-05T01:27:12.575Z,97161.84
2022-11-05T01:30:21.457Z,97167.44
2022-11-05T01:33:32.810Z,97171.09
2022-11-05T01:36:38.706Z,97181.75
2022-11-05T01:39:44.575Z,97186.31
2022-11-05T01:42:50.883Z,97183.81
2022-11-05T01:46:02.030Z,97184.56
2022-11-05T01:49:24.312Z,97184.94
2022-11-05T01:52:33.805Z,97197.66
2022-11-05T01:55:47.343Z,97192.91
2022-11-05T01:59:10.926Z,97193.72
2022-11-05T02:02:17.043Z,97213.06
2022-11-05T02:05:26.574Z,97223.81
2022-11-05T02:08:58.660Z,97228.19
2022-11-05T02:12:05.269Z,97237.25
2022-11-05T02:15:16.299Z,97236.50
2022-11-05T02:18:41.217Z,97234.09
2022-11-05T02:22:31.456Z,97234.50
2022-11-05T02:26:39.374Z,97239.63
2022-11-05T02:30:08.990Z,97241.47
2022-11-05T02:33:34.305Z,97257.13
2022-11-05T02:36:53.218Z,97246.09
2022-11-05T02:40:17.147Z,97256.50
2022-11-05T02:43:39.697Z,97261.34
2022-11-05T02:47:02.177Z,97248.56
2022-11-05T02:50:29.257Z,97265.66
2022-11-05T02:53:51.646Z,97265.75
2022-11-05T02:57:03.093Z,97273.63
2022-11-05T03:00:47.740Z,97275.66
2022-11-05T03:04:00.394Z,97281.13
2022-11-05T03:07:45.427Z,97290.06
2022-11-05T03:11:05.440Z,97294.63
2022-11-05T03:14:27.177Z,97294.63
2022-11-05T03:17:45.551Z,97302.34
2022-11-05T03:21:02.544Z,97310.31
2022-11-05T03:24:21.223Z,97312.22
2022-11-05T03:27:34.724Z,97310.75
2022-11-05T03:30:45.991Z,97312.44
2022-11-05T03:33:56.112Z,97321.75
2022-11-05T03:37:07.560Z,97320.50
2022-11-05T03:40:22.591Z,97331.47
2022-11-05T03:43:43.193Z,97331.47
2022-11-05T03:46:55.419Z,97333.56
2022-11-05T03:50:17.371Z,97331.63
2022-11-05T03:53:31.498Z,97333.00
2022-11-05T03:57:00.863Z,97344.38
2022-11-05T04:00:11.534Z,97356.63
2022-11-05T04:03:20.648Z,97362.41
2022-11-05T04:06:38.762Z,97362.22
2022-11-05T04:09:56.703Z,97369.41
2022-11-05T04:13:17.268Z,97370.53
2022-11-05T04:16:40.937Z,97365.97
2022-11-05T04:20:01.073Z,97364.59
2022-11-05T04:23:22.263Z,97369.59
2022-11-05T04:26:27.777Z,97372.25
2022-11-05T04:29:48.349Z,97368.53
2022-11-05T04:33:07.698Z,97380.50
2022-11-05T04:36:13.389Z,97375.84
2022-11-05T04:39:20.013Z,97378.31
2022-11-05T04:42:25.569Z,97382.06
2022-11-05T04:45:37.204Z,97378.22
2022-11-05T04:48:42.852Z,97383.69
2022-11-05T04:51:48.382Z,97387.34
2022-11-05T04:54:53.921Z,97398.63
2022-11-05T04:57:59.551Z,97387.56
2022-11-05T05:01:07.843Z,97402.28
2022-11-05T05:04:13.491Z,97396.41
2022-11-05T05:07:19.103Z,97398.59
2022-11-05T05:10:24.647Z,97404.19
2022-11-05T05:13:30.169Z,97406.19
2022-11-05T05:16:38.343Z,97410.50
2022-11-05T05:19:56.464Z,97421.19
2022-11-05T05:23:02.001Z,97418.81
2022-11-05T05:26:07.704Z,97415.44
2022-11-05T05:29:15.004Z,97421.63
2022-11-05T05:32:23.570Z,97418.88
2022-11-05T05:35:29.193Z,97427.88
2022-11-05T05:38:34.792Z,97441.84
2022-11-05T05:41:40.352Z,97443.56
2022-11-05T05:44:45.965Z,97436.00
2022-11-05T05:47:54.094Z,97441.13
2022-11-05T05:51:04.705Z,97445.78
2022-11-05T05:54:10.321Z,97453.66
2022-11-05T05:57:15.983Z,97464.63
2022-11-05T06:00:21.859Z,97470.84
2022-11-05T06:03:32.714Z,97473.75
2022-11-05T06:06:40.577Z,97483.47
2022-11-05T06:09:46.845Z,97485.47
2022-11-05T06:12:52.391Z,97482.97
2022-11-05T06:16:05.054Z,97489.28
2022-11-05T06:19:13.231Z,97501.16
2022-11-05T06:22:18.917Z,97506.03
2022-11-05T06:25:24.601Z,97508.75
2022-11-05T06:28:30.514Z,97519.28
2022-11-05T06:31:36.137Z,97525.31
2022-11-05T06:34:44.529Z,97532.47
2022-11-05T06:37:50.235Z,97531.81
2022-11-05T06:40:56.226Z,97529.91
2022-11-05T06:44:05.072Z,97543.81
2022-11-05T06:47:12.762Z,97548.75
2022-11-05T06:50:21.203Z,97555.72
2022-11-05T06:53:27.031Z,97558.66
2022-11-05T06:56:32.610Z,97570.91
2022-11-05T06:59:38.649Z,97577.84
2022-11-05T07:02:44.353Z,97579.22
2022-11-05T07:05:54.348Z,97578.22
2022-11-05T07:09:00.042Z,97589.31
2022-11-05T07:12:05.926Z,97595.25
2022-11-05T07:15:13.607Z,97596.91
2022-11-05T07:18:19.946Z,97597.38
2022-11-05T07:21:28.418Z,97602.22
2022-11-05T07:24:35.001Z,97595.72
2022-11-05T07:27:42.258Z,97600.25
2022-11-05T07:30:48.516Z,97602.13
2022-11-05T07:33:54.166Z,97607.16
2022-11-05T07:37:03.177Z,97603.09
2022-11-05T07:40:18.303Z,97617.69
2022-11-05T07:43:24.103Z,97620.13
2022-11-05T07:46:29.958Z,97623.44
2022-11-05T07:49:38.482Z,97622.16
2022-11-05T07:52:54.315Z,97628.78
2022-11-05T07:56:00.971Z,97623.47
2022-11-05T07:59:07.054Z,97622.41
2022-11-05T08:02:14.187Z,97617.97
2022-11-05T08:05:20.206Z,97620.06
2022-11-05T08:08:29.193Z,97628.94
2022-11-05T08:11:36.036Z,97619.88
2022-11-05T08:14:43.745Z,97630.59
2022-11-05T08:17:49.849Z,97641.03
2022-11-05T08:20:55.502Z,97630.13
2022-11-05T08:24:03.945Z,97644.97
2022-11-05T08:27:09.637Z,97654.31
2022-11-05T08:30:17.790Z,97658.66
2022-11-05T08:33:24.635Z,97658.91
2022-11-05T08:36:30.209Z,97665.09
2022-11-05T08:39:38.523Z,97662.56
2022-11-05T08:42:44.166Z,97664.28
2022-11-05T08:46:05.590Z,97669.53
2022-11-05T08:49:15.729Z,97670.41
2022-11-05T08:52:21.335Z,97676.00
2022-11-05T08:55:41.109Z,97672.97
2022-11-05T08:58:46.868Z,97675.09
2022-11-05T09:01:53.310Z,97676.28
2022-11-05T09:04:58.999Z,97666.31
2022-11-05T09:08:04.657Z,97676.22
2022-11-05T09:11:19.099Z,97679.06
2022-11-05T09:14:27.170Z,97678.41
2022-11-05T09:17:33.025Z,97681.00
2022-11-05T09:20:40.213Z,97681.22
2022-11-05T09:23:45.934Z,97675.63
2022-11-05T09:26:54.179Z,97689.63
2022-11-05T09:29:59.828Z,97687.75
2022-11-05T09:33:12.705Z,97692.44
2022-11-05T09:36:22.506Z,97693.09
2022-11-05T09:39:38.172Z,97704.88
2022-11-05T09:42:52.590Z,97704.81
2022-11-05T09:46:05.219Z,97706.09
2022-11-05T09:49:29.205Z,97707.59
2022-11-05T09:52:37.848Z,97711.41
2022-11-05T09:55:48.896Z,97709.59
2022-11-05T09:59:04.321Z,97721.84
2022-11-05T10:02:22.396Z,97717.03
2022-11-05T10:05:31.690Z,97716.09
2022-11-05T10:08:47.797Z,97719.63
2022-11-05T10:12:00.963Z,97725.91
2022-11-05T10:15:21.994Z,97730.38
2022-11-05T10:18:35.614Z,97726.97
2022-11-05T10:22:05.733Z,97738.66
2022-11-05T10:25:21.874Z,97738.66
2022-11-05T10:28:30.545Z,97745.81
2022-11-05T10:31:41.544Z,97749.16
2022-11-05T10:34:48.441Z,97744.81
2022-11-05T10:37:56.359Z,97732.03
2022-11-05T10:41:28.370Z,97733.81
2022-11-05T10:44:49.006Z,97738.03
2022-11-05T10:48:24.816Z,97737.25
2022-11-05T10:51:31.640Z,97738.72
2022-11-05T10:54:39.197Z,97746.78
2022-11-05T10:57:46.090Z,97741.16
2022-11-05T11:01:11.245Z,97747.94
2022-11-05T11:04:27.663Z,97754.19
2022-11-05T11:07:33.866Z,97755.66
2022-11-05T11:10:53.812Z,97762.69
2022-11-05T11:14:07.547Z,97752.31
2022-11-05T11:17:30.052Z,97752.69
2022-11-05T11:20:47.564Z,97764.63
2022-11-05T11:24:00.716Z,97759.56
2022-11-05T11:27:15.828Z,97770.75
2022-11-05T11:30:24.037Z,97776.72
2022-11-05T11:33:32.621Z,97773.25
2022-11-05T11:36:51.910Z,97771.94
2022-11-05T11:40:05.524Z,97776.84
2022-11-05T11:43:29.514Z,97781.41
2022-11-05T11:46:38.298Z,97782.50
2022-11-05T11:49:50.191Z,97775.81
2022-11-05T11:52:58.475Z,97769.16
2022-11-05T11:56:21.296Z,97772.31
2022-11-05T12:00:01.945Z,97782.16
2022-11-05T12:03:23.636Z,97781.88
2022-11-05T12:06:43.259Z,97776.34
2022-11-05T12:10:19.541Z,97778.94
2022-11-05T12:13:58.630Z,97784.81
2022-11-05T12:17:28.240Z,97785.53
2022-11-05T12:21:03.879Z,97796.06
2022-11-05T12:24:36.105Z,97790.75
2022-11-05T12:28:13.376Z,97795.03
2022-11-05T12:31:36.247Z,97797.81
2022-11-05T12:35:02.800Z,97801.03
2022-11-05T12:38:32.882Z,97814.88
2022-11-05T12:41:53.546Z,97813.50
2022-11-05T12:45:15.434Z,97817.91
2022-11-05T12:48:54.106Z,97807.06
2022-11-05T12:52:23.566Z,97803.94
2022-11-05T12:55:37.965Z,97819.28
2022-11-05T12:58:51.156Z,97826.06
2022-11-05T13:02:11.624Z,97825.59
2022-11-05T13:05:26.577Z,97824.31
2022-11-05T13:08:45.955Z,97840.13
2022-11-05T13:11:58.983Z,97840.16
2022-11-05T13:15:28.729Z,97845.38
2022-11-05T13:18:49.045Z,97858.19
2022-11-05T13:22:08.041Z,97861.03
2022-11-05T13:25:24.269Z,97860.81
2022-11-05T13:28:47.082Z,97864.31
2022-11-05T13:32:01.548Z,97878.91
2022-11-05T13:35:27.200Z,97877.81
2022-11-05T13:38:48.616Z,97871.81
2022-11-05T13:42:26.489Z,97868.03
2022-11-05T13:46:15.858Z,97872.00
2022-11-05T13:50:01.911Z,97873.88
2022-11-05T13:54:01.162Z,97872.66
2022-11-05T13:57:36.618Z,97883.34
2022-11-05T14:01:02.137Z,97881.25
2022-11-05T14:04:09.649Z,97890.81
2022-11-05T14:07:23.793Z,97889.69
2022-11-05T14:10:50.725Z,97897.28
2022-11-05T14:14:04.205Z,97905.81
2022-11-05T14:17:31.621Z,97921.63
2022-11-05T14:21:01.871Z,97927.03
2022-11-05T14:24:31.204Z,97928.72
2022-11-05T14:27:51.202Z,97933.38
2022-11-05T14:30:57.029Z,97944.09
2022-11-05T14:34:31.683Z,97950.44
2022-11-05T14:37:42.856Z,97950.88
2022-11-05T14:40:51.741Z,97956.13
2022-11-05T14:44:11.102Z,97956.09
2022-11-05T14:47:31.369Z,97956.47
2022-11-05T14:50:44.992Z,97965.34
2022-11-05T14:53:51.386Z,97961.25
2022-11-05T14:57:00.760Z,97967.03
2022-11-05T15:00:48.622Z,97973.88
2022-11-05T15:04:23.245Z,97984.22
2022-11-05T15:07:41.434Z,97982.91
2022-11-05T15:10:48.840Z,97997.38
2022-11-05T15:14:08.625Z,97997.91
2022-11-05T15:17:30.095Z,97994.31
2022-11-05T15:20:46.511Z,97995.59
2022-11-05T15:23:59.334Z,97998.63
2022-11-05T15:27:20.046Z,98003.13
2022-11-05T15:30:27.885Z,98005.06
2022-11-05T15:33:36.554Z,98011.25
2022-11-05T15:36:43.872Z,98018.56
2022-11-05T15:39:52.928Z,98030.50
2022-11-05T15:43:12.882Z,98027.03
2022-11-05T15:46:23.170Z,98029.16
2022-11-05T15:49:32.399Z,98033.59
2022-11-05T15:52:42.941Z,98040.28
2022-11-05T15:56:02.090Z,98037.16
2022-11-05T15:59:19.947Z,98037.06
2022-11-05T16:02:40.441Z,98032.38
2022-11-05T16:05:53.580Z,98037.53
2022-11-05T16:08:59.810Z,98028.81
2022-11-05T16:12:35.231Z,98039.84
2022-11-05T16:15:41.075Z,98048.63
2022-11-05T16:18:48.760Z,98041.88
2022-11-05T16:22:00.058Z,98049.97
2022-11-05T16:25:41.813Z,98062.91
2022-11-05T16:28:54.259Z,98058.91
2022-11-05T16:32:03.107Z,98063.59
2022-11-05T16:35:19.565Z,98072.53
2022-11-05T16:38:28.252Z,98074.19
2022-11-05T16:41:34.957Z,98083.16
2022-11-05T16:44:40.612Z,98082.66
2022-11-05T16:47:48.406Z,98079.84
2022-11-05T16:50:54.689Z,98097.25
2022-11-05T16:54:03.144Z,98096.59
2022-11-05T16:57:21.741Z,98096.94
2022-11-05T17:00:28.961Z,98101.72
2022-11-05T17:03:34.896Z,98111.03
2022-11-05T17:06:40.584Z,98103.03
2022-11-05T17:09:49.755Z,98104.03
2022-11-05T17:12:56.913Z,98105.22
2022-11-05T17:16:04.268Z,98109.38
2022-11-05T17:19:14.476Z,98099.06
2022-11-05T17:22:20.144Z,98098.41
2022-11-05T17:25:29.478Z,98095.41
2022-11-05T17:28:36.071Z,98103.91
2022-11-05T17:31:43.386Z,98099.59
2022-11-05T17:34:49.152Z,98104.06
2022-11-05T17:37:54.779Z,98111.03
2022-11-05T17:41:03.111Z,98116.34
2022-11-05T17:44:09.091Z,98114.50
2022-11-05T17:47:14.982Z,98119.47
2022-11-05T17:50:21.372Z,98127.28
2022-11-05T17:53:27.007Z,98124.44
2022-11-05T17:56:40.274Z,98128.78
2022-11-05T17:59:49.032Z,98130.59
2022-11-05T18:02:57.295Z,98130.44
2022-11-05T18:06:08.166Z,98116.66
2022-11-05T18:09:15.314Z,98135.56
2022-11-05T18:12:23.702Z,98144.53
2022-11-05T18:15:29.583Z,98135.41
2022-11-05T18:18:35.237Z,98148.16
2022-11-05T18:21:41.477Z,98146.34
2022-11-05T18:24:47.409Z,98139.22
2022-11-05T18:27:55.816Z,98145.88
2022-11-05T18:31:01.358Z,98151.50
2022-11-05T18:34:10.575Z,98154.63
2022-11-05T18:37:19.167Z,98156.31
2022-11-05T18:40:24.949Z,98155.66
2022-11-05T18:43:33.367Z,98166.41
2022-11-05T18:50:05.532Z,98168.91
2022-11-05T18:53:11.354Z,98162.28
2022-11-05T18:56:20.920Z,98166.75
2022-11-05T18:59:37.698Z,98170.59
2022-11-05T19:02:44.273Z,98181.34
2022-11-05T19:05:50.210Z,98183.03
2022-11-05T19:08:57.948Z,98187.31
2022-11-05T19:12:04.065Z,98189.66
2022-11-05T19:15:13.689Z,98187.66
2022-11-05T19:18:19.649Z,98189.81
2022-11-05T19:21:27.786Z,98191.47
2022-11-05T19:24:33.516Z,98206.91
2022-11-05T19:27:44.561Z,98196.78
2022-11-05T19:30:53.938Z,98202.09
2022-11-05T19:34:04.080Z,98207.41
2022-11-05T19:37:12.590Z,98199.78
2022-11-05T19:40:18.227Z,98215.88
2022-11-05T19:43:24.106Z,98217.03
2022-11-05T19:46:34.044Z,98230.81
2022-11-05T19:49:39.718Z,98231.78
2022-11-05T19:52:45.311Z,98225.84
2022-11-05T19:55:51.091Z,98239.41
2022-11-05T19:58:57.702Z,98254.03
2022-11-05T20:02:11.928Z,98253.34
2022-11-05T20:05:21.584Z,98254.38
2022-11-05T20:08:27.496Z,98267.28
2022-11-05T20:11:33.121Z,98264.16
2022-11-05T20:14:39.040Z,98267.97
2022-11-05T20:17:51.442Z,98269.13
2022-11-05T20:21:07.017Z,98270.78
2022-11-05T20:24:22.415Z,98272.75
2022-11-05T20:27:29.754Z,98268.25
2022-11-05T20:30:36.118Z,98279.41
2022-11-05T20:33:50.959Z,98281.72
2022-11-05T20:36:59.075Z,98276.41
2022-11-05T20:40:05.878Z,98289.19
2022-11-05T20:43:12.666Z,98300.63
2022-11-05T20:46:23.907Z,98293.16
2022-11-05T20:49:37.891Z,98298.81
2022-11-05T20:52:46.035Z,98299.47
2022-11-05T20:55:53.966Z,98305.94
2022-11-05T20:59:03.952Z,98305.75
2022-11-05T21:02:14.196Z,98303.75
2022-11-05T21:05:24.493Z,98305.56
2022-11-05T21:08:32.350Z,98306.38
2022-11-05T21:11:51.280Z,98294.63
2022-11-05T21:14:57.324Z,98294.09
2022-11-05T21:18:11.576Z,98292.31
2022-11-05T21:21:23.590Z,98304.56
2022-11-05T21:24:41.051Z,98301.91
2022-11-05T21:27:47.250Z,98310.69
2022-11-05T21:30:55.369Z,98309.19
2022-11-05T21:34:02.837Z,98303.41
2022-11-05T21:37:18.569Z,98301.75
2022-11-05T21:40:27.918Z,98310.69
2022-11-05T21:43:34.891Z,98302.44
2022-11-05T21:46:41.579Z,98301.75
2022-11-05T21:49:55.227Z,98303.41
2022-11-05T21:53:16.861Z,98304.25
2022-11-05T21:56:43.466Z,98313.72
2022-11-05T21:59:52.483Z,98316.25
2022-11-05T22:03:04.411Z,98314.06
2022-11-05T22:06:11.616Z,98307.94
2022-11-05T22:09:21.923Z,98310.09
2022-11-05T22:12:29.706Z,98325.34
2022-11-05T22:15:35.261Z,98319.03
2022-11-05T22:18:43.786Z,98318.75
2022-11-05T22:21:49.948Z,98323.00
2022-11-05T22:24:58.316Z,98319.00
2022-11-05T22:28:03.866Z,98326.94
2022-11-05T22:31:16.343Z,98321.66
2022-11-05T22:34:22.169Z,98322.00
2022-11-05T22:37:27.921Z,98322.66
2022-11-05T22:40:36.243Z,98324.50
2022-11-05T22:43:42.956Z,98319.34
2022-11-05T22:46:49.025Z,98324.81
2022-11-05T22:49:54.652Z,98317.34
2022-11-05T22:53:00.260Z,98316.22
2022-11-05T22:56:11.747Z,98311.56
2022-11-05T22:59:19.182Z,98321.00
2022-11-05T23:02:25.049Z,98322.66
2022-11-05T23:05:30.743Z,98324.16
2022-11-05T23:08:48.807Z,98322.34
2022-11-05T23:11:57.543Z,98336.41
2022-11-05T23:15:06.385Z,98330.94
2022-11-05T23:18:25.228Z,98329.78
2022-11-05T23:21:43.148Z,98330.56
2022-11-05T23:24:49.879Z,98332.84
2022-11-05T23:27:58.301Z,98338.50
2022-11-05T23:31:16.276Z,98333.38
2022-11-05T23:34:23.522Z,98339.16
2022-11-05T23:37:45.101Z,98342.59
2022-11-05T23:41:02.823Z,98332.31
2022-11-05T23:44:27.137Z,98333.84
2022-11-05T23:47:45.151Z,98336.22
2022-11-05T23:50:56.141Z,98335.53
2022-11-05T23:54:01.756Z,98329.47
2022-11-05T23:57:07.913Z,98344.38
